createdAt,value
2022-11-01T00:03:38.333Z,113.68
2022-11-01T00:08:34.539Z,114.68
2022-11-01T00:13:30.851Z,112.30
2022-11-01T00:18:27.079Z,115.68
2022-11-01T00:23:23.268Z,114.78
2022-11-01T00:28:19.501Z,117.28
2022-11-01T00:33:16.718Z,117.47
2022-11-01T00:38:13.772Z,114.55
2022-11-01T00:43:10.472Z,113.90
2022-11-01T00:48:06.830Z,118.60
2022-11-01T00:53:03.033Z,112.70
2022-11-01T00:57:59.490Z,119.22
2022-11-01T01:02:56.284Z,121.57
2022-11-01T01:07:52.561Z,115.88
2022-11-01T01:12:48.998Z,110.60
2022-11-01T01:17:45.174Z,117.00
2022-11-01T01:22:42.441Z,120.20
2022-11-01T01:27:38.642Z,117.72
2022-11-01T01:32:35.532Z,120.55
2022-11-01T01:37:31.861Z,119.85
2022-11-01T01:42:29.692Z,120.00
2022-11-01T01:47:33.833Z,115.30
2022-11-01T01:52:31.533Z,117.03
2022-11-01T01:57:28.087Z,119.07
2022-11-01T02:02:24.470Z,117.57
2022-11-01T02:07:20.810Z,114.95
2022-11-01T02:12:17.333Z,119.63
2022-11-01T02:17:25.378Z,119.60
2022-11-01T02:22:24.713Z,124.72
2022-11-01T02:27:23.622Z,119.70
2022-11-01T02:32:22.042Z,118.72
2022-11-01T02:37:23.493Z,117.10
2022-11-01T02:42:25.954Z,122.50
2022-11-01T02:47:23.422Z,117.05
2022-11-01T02:52:22.097Z,120.72
2022-11-01T02:57:24.177Z,126.00
2022-11-01T03:02:39.323Z,119.95
2022-11-01T03:07:35.619Z,117.95
2022-11-01T03:12:33.395Z,120.60
2022-11-01T03:17:33.893Z,123.75
2022-11-01T03:22:36.053Z,125.13
2022-11-01T03:27:34.452Z,124.10
2022-11-01T03:32:36.193Z,124.70
2022-11-01T03:37:33.477Z,126.43
2022-11-01T03:42:30.419Z,121.68
2022-11-01T03:47:26.688Z,122.07
2022-11-01T03:52:22.921Z,123.47
2022-11-01T03:57:19.100Z,120.18
2022-11-01T04:02:15.478Z,121.78
2022-11-01T04:07:11.669Z,123.80
2022-11-01T04:12:07.852Z,128.23
2022-11-01T04:17:22.597Z,129.98
2022-11-01T04:22:22.040Z,129.90
2022-11-01T04:27:20.797Z,127.00
2022-11-01T04:32:17.233Z,127.25
2022-11-01T04:37:14.046Z,124.47
2022-11-01T04:42:10.842Z,126.68
2022-11-01T04:47:07.065Z,126.63
2022-11-01T04:52:03.426Z,130.02
2022-11-01T04:56:59.706Z,123.35
2022-11-01T05:01:55.999Z,128.45
2022-11-01T05:06:52.300Z,132.55
2022-11-01T05:11:48.510Z,134.18
2022-11-01T05:16:44.775Z,131.77
2022-11-01T05:21:41.001Z,135.63
2022-11-01T05:26:37.291Z,133.13
2022-11-01T05:31:33.677Z,131.50
2022-11-01T05:36:29.975Z,131.93
2022-11-01T05:41:26.544Z,136.48
2022-11-01T05:46:22.784Z,134.93
2022-11-01T05:51:19.129Z,138.88
2022-11-01T05:56:15.768Z,132.93
2022-11-01T06:01:12.037Z,139.40
2022-11-01T06:06:08.324Z,139.25
2022-11-01T06:11:04.982Z,143.75
2022-11-01T06:16:02.157Z,134.00
2022-11-01T06:20:59.221Z,137.75
2022-11-01T06:26:04.973Z,135.05
2022-11-01T06:36:02.808Z,137.25
2022-11-01T06:40:59.065Z,137.65
2022-11-01T06:45:55.363Z,137.52
2022-11-01T06:50:53.723Z,136.18
2022-11-01T06:55:50.537Z,140.35
2022-11-01T07:00:46.925Z,137.52
2022-11-01T07:05:43.323Z,133.50
2022-11-01T07:10:41.110Z,136.52
2022-11-01T07:15:37.495Z,131.23
2022-11-01T07:20:41.196Z,136.02
2022-11-01T07:25:38.096Z,139.38
2022-11-01T07:30:34.526Z,135.68
2022-11-01T07:35:31.158Z,140.00
2022-11-01T07:40:28.090Z,138.40
2022-11-01T07:45:25.091Z,130.00
2022-11-01T07:50:21.457Z,134.07
2022-11-01T07:55:17.744Z,129.75
2022-11-01T08:00:14.432Z,130.05
2022-11-01T08:05:12.534Z,132.68
2022-11-01T08:10:10.751Z,139.32
2022-11-01T08:15:07.514Z,136.82
2022-11-01T08:20:04.330Z,142.50
2022-11-01T08:25:00.563Z,140.73
2022-11-01T08:29:56.813Z,137.35
2022-11-01T08:34:53.077Z,134.95
2022-11-01T08:39:49.414Z,135.32
2022-11-01T08:44:45.827Z,129.90
2022-11-01T08:49:42.116Z,135.35
2022-11-01T08:54:38.323Z,133.48
2022-11-01T08:59:34.613Z,127.50
2022-11-01T09:04:31.013Z,128.35
2022-11-01T09:09:27.571Z,121.18
2022-11-01T09:14:24.843Z,122.05
2022-11-01T09:19:21.174Z,116.13
2022-11-01T09:24:17.793Z,114.78
2022-11-01T09:29:14.329Z,115.13
2022-11-01T09:34:11.974Z,112.05
2022-11-01T09:39:08.246Z,88.60
2022-11-01T09:44:06.664Z,47.03
2022-11-01T09:49:03.704Z,34.03
2022-11-01T09:54:04.219Z,29.42
2022-11-01T09:59:06.688Z,26.38
2022-11-01T10:09:17.999Z,23.08
2022-11-01T10:14:14.195Z,23.58
2022-11-01T10:19:11.374Z,24.80
2022-11-01T10:24:13.339Z,23.33
2022-11-01T10:29:22.874Z,24.55
2022-11-01T10:34:29.789Z,22.45
2022-11-01T10:40:01.355Z,23.65
2022-11-01T10:45:23.229Z,22.13
2022-11-01T10:50:22.007Z,20.60
2022-11-01T10:55:29.350Z,18.45
2022-11-01T11:00:25.750Z,12.98
2022-11-01T11:05:23.215Z,11.43
2022-11-01T11:10:24.786Z,10.93
2022-11-01T11:15:23.194Z,10.83
2022-11-01T11:20:25.383Z,10.50
2022-11-01T11:25:27.378Z,11.00
2022-11-01T11:30:28.482Z,12.05
2022-11-01T11:35:26.954Z,10.43
2022-11-01T11:40:24.593Z,11.25
2022-11-01T11:45:29.372Z,13.70
2022-11-01T11:50:27.422Z,9.70
2022-11-01T11:55:39.314Z,10.40
2022-11-01T12:00:37.540Z,9.80
2022-11-01T12:05:34.173Z,12.68
2022-11-01T12:10:37.525Z,10.65
2022-11-01T12:15:38.302Z,13.35
2022-11-01T12:20:37.534Z,12.93
2022-11-01T12:25:35.574Z,12.77
2022-11-01T12:30:33.335Z,11.82
2022-11-01T12:35:31.364Z,14.90
2022-11-01T12:40:33.423Z,11.15
2022-11-01T12:45:29.645Z,9.30
2022-11-01T12:50:49.337Z,11.77
2022-11-01T12:55:47.016Z,13.55
2022-11-01T13:00:55.540Z,15.15
2022-11-01T13:05:57.503Z,10.88
2022-11-01T13:10:56.749Z,13.07
2022-11-01T13:16:07.480Z,12.32
2022-11-01T13:21:27.586Z,12.50
2022-11-01T13:26:25.954Z,11.73
2022-11-01T13:31:40.282Z,15.75
2022-11-01T13:36:42.377Z,12.73
2022-11-01T13:41:50.595Z,10.20
2022-11-01T13:46:46.858Z,11.15
2022-11-01T13:51:49.255Z,14.70
2022-11-01T13:56:58.495Z,10.18
2022-11-01T14:01:54.981Z,13.85
2022-11-01T14:07:12.260Z,14.60
2022-11-01T14:12:08.536Z,13.05
2022-11-01T14:17:17.154Z,15.25
2022-11-01T14:22:22.338Z,17.25
2022-11-01T14:27:20.329Z,10.40
2022-11-01T14:32:17.522Z,13.90
2022-11-01T14:37:19.083Z,13.35
2022-11-01T14:42:19.746Z,11.50
2022-11-01T14:47:36.338Z,14.43
2022-11-01T14:52:56.332Z,12.55
2022-11-01T14:58:11.660Z,13.73
2022-11-01T15:03:08.652Z,16.75
2022-11-01T15:08:19.611Z,14.18
2022-11-01T15:13:17.206Z,12.60
2022-11-01T15:18:14.971Z,12.95
2022-11-01T15:23:15.460Z,13.07
2022-11-01T15:28:19.547Z,11.60
2022-11-01T15:33:20.832Z,14.90
2022-11-01T15:38:20.749Z,24.10
2022-11-01T15:43:18.888Z,12.60
2022-11-01T15:48:18.562Z,11.77
2022-11-01T15:53:18.918Z,12.18
2022-11-01T15:58:18.221Z,17.35
2022-11-01T16:03:16.893Z,10.15
2022-11-01T16:08:25.433Z,13.57
2022-11-01T16:13:21.684Z,14.23
2022-11-01T16:18:23.900Z,14.15
2022-11-01T16:23:28.349Z,17.63
2022-11-01T16:28:24.793Z,13.55
2022-11-01T16:33:22.066Z,17.50
2022-11-01T16:38:39.372Z,17.00
2022-11-01T16:43:35.917Z,18.70
2022-11-01T16:48:47.775Z,20.45
2022-11-01T16:53:44.018Z,15.00
2022-11-01T16:58:40.268Z,21.15
2022-11-01T17:03:36.566Z,16.80
2022-11-01T17:08:33.663Z,14.02
2022-11-01T17:13:29.917Z,12.45
2022-11-01T17:18:28.455Z,17.33
2022-11-01T17:23:26.209Z,16.50
2022-11-01T17:28:25.942Z,19.83
2022-11-01T17:33:22.399Z,15.48
2022-11-01T17:38:30.209Z,17.95
2022-11-01T17:43:28.099Z,16.38
2022-11-01T17:48:24.351Z,16.65
2022-11-01T17:53:20.618Z,18.27
2022-11-01T17:58:17.006Z,14.15
2022-11-01T18:03:14.763Z,21.17
2022-11-01T18:08:16.389Z,15.77
2022-11-01T18:13:12.612Z,20.13
2022-11-01T18:18:14.578Z,16.33
2022-11-01T18:23:12.385Z,16.52
2022-11-01T18:28:15.732Z,17.42
2022-11-01T18:33:21.792Z,16.40
2022-11-01T18:38:21.901Z,17.20
2022-11-01T18:43:20.127Z,18.50
2022-11-01T18:48:19.808Z,16.88
2022-11-01T18:53:17.718Z,14.60
2022-11-01T18:58:15.901Z,22.65
2022-11-01T19:03:13.484Z,14.93
2022-11-01T19:08:18.463Z,20.83
2022-11-01T19:13:20.646Z,14.30
2022-11-01T19:18:18.975Z,15.75
2022-11-01T19:23:18.294Z,16.38
2022-11-01T19:28:25.470Z,17.38
2022-11-01T19:33:29.073Z,17.23
2022-11-01T19:38:25.317Z,17.80
2022-11-01T19:43:23.790Z,15.02
2022-11-01T19:48:22.174Z,16.92
2022-11-01T19:53:29.927Z,19.23
2022-11-01T19:58:38.820Z,17.48
2022-11-01T20:03:40.221Z,14.18
2022-11-01T20:08:36.542Z,10.50
2022-11-01T20:13:32.830Z,10.27
2022-11-01T20:18:29.118Z,13.30
2022-11-01T20:23:26.947Z,14.85
2022-11-01T20:28:23.818Z,11.98
2022-11-01T20:33:20.086Z,11.23
2022-11-01T20:38:16.554Z,13.15
2022-11-01T20:43:12.911Z,12.82
2022-11-01T20:48:09.268Z,17.55
2022-11-01T20:53:08.354Z,10.02
2022-11-01T20:58:04.898Z,9.40
2022-11-01T21:03:12.067Z,9.40
2022-11-01T21:08:11.070Z,11.93
2022-11-01T21:13:27.777Z,11.38
2022-11-01T21:18:27.990Z,23.50
2022-11-01T21:23:35.330Z,10.70
2022-11-01T21:28:42.314Z,11.50
2022-11-01T21:33:42.490Z,9.60
2022-11-01T21:38:40.630Z,12.32
2022-11-01T21:43:37.041Z,10.70
2022-11-01T21:48:33.331Z,9.77
2022-11-01T21:53:29.575Z,11.38
2022-11-01T21:58:25.780Z,10.07
2022-11-01T22:03:22.128Z,11.27
2022-11-01T22:08:18.312Z,11.40
2022-11-01T22:13:14.561Z,9.40
2022-11-01T22:18:10.746Z,11.07
2022-11-01T22:23:07.328Z,9.02
2022-11-01T22:28:06.041Z,11.93
2022-11-01T22:33:03.429Z,9.32
2022-11-01T22:37:59.966Z,12.38
2022-11-01T22:42:57.821Z,9.18
2022-11-01T22:47:54.062Z,8.73
2022-11-01T22:52:50.394Z,12.90
2022-11-01T22:57:51.924Z,13.60
2022-11-01T23:02:48.314Z,9.20
2022-11-01T23:07:46.442Z,12.23
2022-11-01T23:13:01.381Z,11.30
2022-11-01T23:18:02.387Z,10.50
2022-11-01T23:22:58.912Z,13.38
2022-11-01T23:27:55.191Z,11.00
2022-11-01T23:32:51.521Z,14.60
2022-11-01T23:37:49.086Z,7.95
2022-11-01T23:42:46.425Z,12.27
2022-11-01T23:47:42.749Z,10.93
2022-11-01T23:52:46.085Z,16.45
2022-11-01T23:57:42.416Z,11.93
